sensor_id;sensor_type;location;lat;lon;timestamp;pressure;altitude;pressure_sealevel;temperature;humidity
56719;BME280;42597;40.636;0.278;2023-01-09T00:01:30;96774.41;;;15.27;70.86
56719;BME280;42597;40.636;0.278;2023-01-09T00:03:56;96754.19;;;15.28;71.98
56719;BME280;42597;40.636;0.278;2023-01-09T00:06:22;96772.06;;;15.22;70.49
56719;BME280;42597;40.636;0.278;2023-01-09T00:08:48;96765.84;;;15.25;69.72
56719;BME280;42597;40.636;0.278;2023-01-09T00:11:14;96748.75;;;15.25;70.95
56719;BME280;42597;40.636;0.278;2023-01-09T00:13:39;96743.31;;;15.28;70.69
56719;BME280;42597;40.636;0.278;2023-01-09T00:16:06;96754.56;;;15.27;70.70
56719;BME280;42597;40.636;0.278;2023-01-09T00:18:32;96766.63;;;15.22;71.00
56719;BME280;42597;40.636;0.278;2023-01-09T00:21:02;96749.53;;;15.25;70.36
56719;BME280;42597;40.636;0.278;2023-01-09T00:23:28;96757.31;;;15.30;71.46
56719;BME280;42597;40.636;0.278;2023-01-09T00:26:16;96767.38;;;15.23;70.61
56719;BME280;42597;40.636;0.278;2023-01-09T00:28:43;96776.75;;;15.25;70.01
56719;BME280;42597;40.636;0.278;2023-01-09T00:31:10;96748.34;;;15.26;71.03
56719;BME280;42597;40.636;0.278;2023-01-09T00:33:51;96764.31;;;15.24;70.97
56719;BME280;42597;40.636;0.278;2023-01-09T00:36:19;96749.91;;;15.24;70.32
56719;BME280;42597;40.636;0.278;2023-01-09T00:38:44;96742.13;;;15.29;68.06
56719;BME280;42597;40.636;0.278;2023-01-09T00:41:14;96754.97;;;15.33;70.87
56719;BME280;42597;40.636;0.278;2023-01-09T00:43:44;96753.78;;;15.26;68.79
56719;BME280;42597;40.636;0.278;2023-01-09T00:46:11;96760.78;;;15.20;68.51
56719;BME280;42597;40.636;0.278;2023-01-09T00:48:39;96761.19;;;15.29;70.31
56719;BME280;42597;40.636;0.278;2023-01-09T00:51:07;96771.31;;;15.33;71.29
56719;BME280;42597;40.636;0.278;2023-01-09T00:53:35;96751.84;;;15.30;70.50
56719;BME280;42597;40.636;0.278;2023-01-09T00:56:04;96778.28;;;15.26;70.54
56719;BME280;42597;40.636;0.278;2023-01-09T00:58:32;96767.38;;;15.23;70.23
56719;BME280;42597;40.636;0.278;2023-01-09T01:00:58;96764.28;;;15.21;70.42
56719;BME280;42597;40.636;0.278;2023-01-09T01:03:24;96729.28;;;15.26;70.98
56719;BME280;42597;40.636;0.278;2023-01-09T01:05:50;96758.84;;;15.21;69.21
56719;BME280;42597;40.636;0.278;2023-01-09T01:08:35;96752.97;;;15.15;69.18
56719;BME280;42597;40.636;0.278;2023-01-09T01:11:05;96759.63;;;15.21;70.46
56719;BME280;42597;40.636;0.278;2023-01-09T01:13:31;96744.88;;;15.29;71.23
56719;BME280;42597;40.636;0.278;2023-01-09T01:15:56;96761.94;;;15.19;70.36
56719;BME280;42597;40.636;0.278;2023-01-09T01:18:22;96730.88;;;15.24;71.13
56719;BME280;42597;40.636;0.278;2023-01-09T01:20:48;96760.38;;;15.18;70.83
56719;BME280;42597;40.636;0.278;2023-01-09T01:23:13;96750.28;;;15.22;70.83
56719;BME280;42597;40.636;0.278;2023-01-09T01:25:40;96762.34;;;15.21;70.94
56719;BME280;42597;40.636;0.278;2023-01-09T01:28:07;96737.06;;;15.21;69.99
56719;BME280;42597;40.636;0.278;2023-01-09T01:30:40;96753.38;;;15.17;70.25
56719;BME280;42597;40.636;0.278;2023-01-09T01:33:06;96765.03;;;15.14;69.51
56719;BME280;42597;40.636;0.278;2023-01-09T01:35:32;96742.09;;;15.15;69.15
56719;BME280;42597;40.636;0.278;2023-01-09T01:37:58;96738.22;;;15.16;69.45
56719;BME280;42597;40.636;0.278;2023-01-09T01:40:24;96760.00;;;15.16;70.05
56719;BME280;42597;40.636;0.278;2023-01-09T01:42:52;96749.50;;;15.08;67.81
56719;BME280;42597;40.636;0.278;2023-01-09T01:45:22;96761.94;;;15.19;69.29
56719;BME280;42597;40.636;0.278;2023-01-09T01:53:33;96752.59;;;15.13;67.18
56719;BME280;42597;40.636;0.278;2023-01-09T01:56:28;96740.16;;;15.19;70.06
56719;BME280;42597;40.636;0.278;2023-01-09T02:01:30;96737.06;;;15.17;68.89
56719;BME280;42597;40.636;0.278;2023-01-09T02:03:56;96732.41;;;15.21;69.79
56719;BME280;42597;40.636;0.278;2023-01-09T02:06:24;96689.63;;;15.18;69.18
56719;BME280;42597;40.636;0.278;2023-01-09T02:08:49;96767.38;;;15.12;66.84
56719;BME280;42597;40.636;0.278;2023-01-09T02:11:17;96730.06;;;15.13;65.14
56719;BME280;42597;40.636;0.278;2023-01-09T02:13:44;96752.59;;;15.13;66.63
56719;BME280;42597;40.636;0.278;2023-01-09T02:38:46;96772.03;;;15.08;64.74
56719;BME280;42597;40.636;0.278;2023-01-09T02:41:34;96739.75;;;15.10;66.50
56719;BME280;42597;40.636;0.278;2023-01-09T02:44:31;96743.25;;;15.07;64.91
56719;BME280;42597;40.636;0.278;2023-01-09T02:49:52;96766.16;;;15.02;63.32
56719;BME280;42597;40.636;0.278;2023-01-09T03:04:07;96757.25;;;15.05;66.75
56719;BME280;42597;40.636;0.278;2023-01-09T03:09:12;96751.78;;;15.02;66.46
56719;BME280;42597;40.636;0.278;2023-01-09T03:11:43;96789.03;;;14.91;65.36
56719;BME280;42597;40.636;0.278;2023-01-09T03:14:14;96782.13;;;15.04;66.47
56719;BME280;42597;40.636;0.278;2023-01-09T03:16:43;96785.22;;;15.06;66.19
56719;BME280;42597;40.636;0.278;2023-01-09T03:19:14;96772.78;;;15.05;65.79
56719;BME280;42597;40.636;0.278;2023-01-09T03:21:41;96768.16;;;15.13;68.75
56719;BME280;42597;40.636;0.278;2023-01-09T03:24:08;96781.34;;;15.00;65.69
56719;BME280;42597;40.636;0.278;2023-01-09T03:26:34;96756.47;;;15.05;66.24
56719;BME280;42597;40.636;0.278;2023-01-09T03:28:59;96792.97;;;14.97;64.43
56719;BME280;42597;40.636;0.278;2023-01-09T03:31:25;96774.34;;;15.10;68.20
56719;BME280;42597;40.636;0.278;2023-01-09T03:33:51;96754.09;;;14.93;64.40
56719;BME280;42597;40.636;0.278;2023-01-09T03:36:18;96770.03;;;14.98;65.28
56719;BME280;42597;40.636;0.278;2023-01-09T03:38:43;96782.91;;;15.08;68.36
56719;BME280;42597;40.636;0.278;2023-01-09T03:41:09;96796.84;;;14.92;64.63
56719;BME280;42597;40.636;0.278;2023-01-09T03:43:35;96773.16;;;15.07;68.30
56719;BME280;42597;40.636;0.278;2023-01-09T03:46:01;96761.09;;;14.97;67.33
56719;BME280;42597;40.636;0.278;2023-01-09T03:48:27;96787.50;;;14.90;66.31
56719;BME280;42597;40.636;0.278;2023-01-09T03:50:54;96740.13;;;14.98;67.48
56719;BME280;42597;40.636;0.278;2023-01-09T03:53:21;96789.03;;;14.87;63.07
56719;BME280;42597;40.636;0.278;2023-01-09T03:55:49;96740.53;;;15.00;66.39
56719;BME280;42597;40.636;0.278;2023-01-09T03:58:17;96760.31;;;14.93;66.17
56719;BME280;42597;40.636;0.278;2023-01-09T04:00:43;96777.78;;;14.89;64.52
56719;BME280;42597;40.636;0.278;2023-01-09T04:03:18;96747.91;;;15.03;67.77
56719;BME280;42597;40.636;0.278;2023-01-09T04:05:45;96774.28;;;14.95;65.81
56719;BME280;42597;40.636;0.278;2023-01-09T04:08:12;96762.66;;;15.02;67.86
56719;BME280;42597;40.636;0.278;2023-01-09T04:10:37;96758.34;;;14.90;65.67
56719;BME280;42597;40.636;0.278;2023-01-09T04:13:03;96754.81;;;14.82;62.30
56719;BME280;42597;40.636;0.278;2023-01-09T04:15:29;96777.00;;;14.85;64.42
56719;BME280;42597;40.636;0.278;2023-01-09T04:17:54;96781.31;;;14.93;66.98
56719;BME280;42597;40.636;0.278;2023-01-09T04:20:20;96798.31;;;14.75;63.06
56719;BME280;42597;40.636;0.278;2023-01-09T04:22:46;96794.91;;;14.93;66.98
56719;BME280;42597;40.636;0.278;2023-01-09T04:25:11;96793.69;;;14.87;65.60
56719;BME280;42597;40.636;0.278;2023-01-09T04:27:37;96796.78;;;14.81;65.25
56719;BME280;42597;40.636;0.278;2023-01-09T04:30:03;96775.06;;;14.89;65.47
56719;BME280;42597;40.636;0.278;2023-01-09T04:32:29;96824.78;;;14.86;65.92
56719;BME280;42597;40.636;0.278;2023-01-09T04:34:55;96799.13;;;14.87;67.09
56719;BME280;42597;40.636;0.278;2023-01-09T04:37:22;96840.31;;;14.81;65.11
56719;BME280;42597;40.636;0.278;2023-01-09T04:39:49;96803.06;;;14.93;67.60
56719;BME280;42597;40.636;0.278;2023-01-09T04:42:15;96795.28;;;14.95;67.57
56719;BME280;42597;40.636;0.278;2023-01-09T04:44:41;96837.91;;;14.69;63.10
56719;BME280;42597;40.636;0.278;2023-01-09T04:47:07;96809.25;;;14.90;66.80
56719;BME280;42597;40.636;0.278;2023-01-09T04:49:33;96830.53;;;14.73;64.01
56719;BME280;42597;40.636;0.278;2023-01-09T04:51:59;96798.31;;;14.75;62.58
56719;BME280;42597;40.636;0.278;2023-01-09T04:54:24;96791.31;;;14.74;64.52
56719;BME280;42597;40.636;0.278;2023-01-09T04:56:50;96820.16;;;14.93;67.37
56719;BME280;42597;40.636;0.278;2023-01-09T04:59:16;96796.41;;;14.79;65.49
56719;BME280;42597;40.636;0.278;2023-01-09T05:01:42;96820.88;;;14.79;65.08
56719;BME280;42597;40.636;0.278;2023-01-09T05:04:07;96814.63;;;14.79;64.96
56719;BME280;42597;40.636;0.278;2023-01-09T05:06:33;96839.03;;;14.61;60.63
56719;BME280;42597;40.636;0.278;2023-01-09T05:09:00;96838.72;;;14.73;63.65
56719;BME280;42597;40.636;0.278;2023-01-09T05:11:25;96826.31;;;14.79;64.78
56719;BME280;42597;40.636;0.278;2023-01-09T05:13:52;96830.22;;;14.86;65.94
56719;BME280;42597;40.636;0.278;2023-01-09T05:16:18;96873.78;;;14.93;67.55
56719;BME280;42597;40.636;0.278;2023-01-09T05:18:43;96867.41;;;14.67;65.13
56719;BME280;42597;40.636;0.278;2023-01-09T05:21:09;96839.38;;;14.56;64.21
56719;BME280;42597;40.636;0.278;2023-01-09T05:23:35;96848.81;;;14.73;66.88
56719;BME280;42597;40.636;0.278;2023-01-09T05:26:01;96856.25;;;14.79;66.86
56719;BME280;42597;40.636;0.278;2023-01-09T05:28:29;96887.16;;;14.57;63.60
56719;BME280;42597;40.636;0.278;2023-01-09T05:30:55;96857.78;;;14.80;66.47
56719;BME280;42597;40.636;0.278;2023-01-09T05:33:21;96861.25;;;14.77;67.50
56719;BME280;42597;40.636;0.278;2023-01-09T05:35:46;96836.03;;;14.80;68.22
56719;BME280;42597;40.636;0.278;2023-01-09T05:38:12;96850.44;;;14.85;68.60
56719;BME280;42597;40.636;0.278;2023-01-09T05:40:38;96893.78;;;14.63;64.23
56719;BME280;42597;40.636;0.278;2023-01-09T05:43:03;96905.78;;;14.51;65.29
56719;BME280;42597;40.636;0.278;2023-01-09T05:45:29;96928.09;;;14.78;67.93
56719;BME280;42597;40.636;0.278;2023-01-09T05:47:55;96878.31;;;14.71;67.90
56719;BME280;42597;40.636;0.278;2023-01-09T05:50:20;96940.56;;;14.39;63.37
56719;BME280;42597;40.636;0.278;2023-01-09T05:52:46;96882.16;;;14.66;67.07
56719;BME280;42597;40.636;0.278;2023-01-09T05:55:12;96910.06;;;14.56;65.24
56719;BME280;42597;40.636;0.278;2023-01-09T05:57:38;96877.84;;;14.58;68.09
56719;BME280;42597;40.636;0.278;2023-01-09T06:00:04;96928.88;;;14.79;68.50
56719;BME280;42597;40.636;0.278;2023-01-09T06:02:30;96942.34;;;14.20;62.49
56719;BME280;42597;40.636;0.278;2023-01-09T06:04:55;96940.44;;;14.24;63.77
56719;BME280;42597;40.636;0.278;2023-01-09T06:07:21;96908.31;;;14.33;68.52
56719;BME280;42597;40.636;0.278;2023-01-09T06:09:47;96954.78;;;14.21;62.08
56719;BME280;42597;40.636;0.278;2023-01-09T06:12:12;96924.75;;;14.48;67.79
56719;BME280;42597;40.636;0.278;2023-01-09T06:14:38;96970.19;;;14.10;61.79
56719;BME280;42597;40.636;0.278;2023-01-09T06:17:05;96943.97;;;14.28;64.00
56719;BME280;42597;40.636;0.278;2023-01-09T06:19:30;97000.75;;;14.37;67.09
56719;BME280;42597;40.636;0.278;2023-01-09T06:21:56;96991.47;;;14.42;67.39
56719;BME280;42597;40.636;0.278;2023-01-09T06:24:22;96992.69;;;14.11;66.20
56719;BME280;42597;40.636;0.278;2023-01-09T06:26:47;97013.50;;;13.96;66.76
56719;BME280;42597;40.636;0.278;2023-01-09T06:29:13;97026.94;;;14.15;66.27
56719;BME280;42597;40.636;0.278;2023-01-09T06:31:39;97060.59;;;14.07;63.07
56719;BME280;42597;40.636;0.278;2023-01-09T06:34:04;97039.91;;;13.99;61.53
56719;BME280;42597;40.636;0.278;2023-01-09T06:36:30;97038.53;;;14.12;65.43
56719;BME280;42597;40.636;0.278;2023-01-09T06:38:55;97077.50;;;13.63;63.17
56719;BME280;42597;40.636;0.278;2023-01-09T06:41:21;97063.03;;;13.86;67.36
56719;BME280;42597;40.636;0.278;2023-01-09T06:43:47;97024.59;;;14.51;68.66
56719;BME280;42597;40.636;0.278;2023-01-09T06:46:12;97068.88;;;14.18;68.71
56719;BME280;42597;40.636;0.278;2023-01-09T06:48:38;97062.84;;;13.18;63.74
56719;BME280;42597;40.636;0.278;2023-01-09T06:51:04;97128.03;;;13.71;66.06
56719;BME280;42597;40.636;0.278;2023-01-09T06:53:30;97088.31;;;13.90;62.82
56719;BME280;42597;40.636;0.278;2023-01-09T06:55:55;97106.41;;;13.25;63.80
56719;BME280;42597;40.636;0.278;2023-01-09T06:58:21;97111.31;;;13.96;67.84
56719;BME280;42597;40.636;0.278;2023-01-09T07:00:47;97087.44;;;14.12;66.53
56719;BME280;42597;40.636;0.278;2023-01-09T07:03:14;97080.44;;;14.11;66.33
56719;BME280;42597;40.636;0.278;2023-01-09T07:05:44;97116.84;;;13.50;69.47
56719;BME280;42597;40.636;0.278;2023-01-09T07:08:11;97073.94;;;13.32;63.82
56719;BME280;42597;40.636;0.278;2023-01-09T07:10:36;97123.22;;;13.61;64.05
56719;BME280;42597;40.636;0.278;2023-01-09T07:13:02;97140.03;;;13.44;64.84
56719;BME280;42597;40.636;0.278;2023-01-09T07:15:28;97122.13;;;13.92;66.50
56719;BME280;42597;40.636;0.278;2023-01-09T07:17:53;97128.41;;;13.43;61.92
56719;BME280;42597;40.636;0.278;2023-01-09T07:20:19;97142.94;;;13.31;68.86
56719;BME280;42597;40.636;0.278;2023-01-09T07:22:45;97178.00;;;13.93;70.09
56719;BME280;42597;40.636;0.278;2023-01-09T07:25:11;97172.00;;;13.31;62.14
56719;BME280;42597;40.636;0.278;2023-01-09T07:27:37;97193.50;;;13.20;62.23
56719;BME280;42597;40.636;0.278;2023-01-09T07:30:04;97185.75;;;13.42;70.23
56719;BME280;42597;40.636;0.278;2023-01-09T07:32:30;97144.72;;;13.73;71.20
56719;BME280;42597;40.636;0.278;2023-01-09T07:34:56;97177.34;;;13.50;65.73
56719;BME280;42597;40.636;0.278;2023-01-09T07:37:21;97182.81;;;13.27;63.73
56719;BME280;42597;40.636;0.278;2023-01-09T07:39:47;97194.53;;;13.58;66.55
56719;BME280;42597;40.636;0.278;2023-01-09T07:42:13;97181.13;;;13.00;63.05
56719;BME280;42597;40.636;0.278;2023-01-09T07:44:39;97212.72;;;13.12;62.84
56719;BME280;42597;40.636;0.278;2023-01-09T07:47:05;97191.69;;;12.85;63.13
56719;BME280;42597;40.636;0.278;2023-01-09T07:49:31;97229.31;;;13.06;63.68
56719;BME280;42597;40.636;0.278;2023-01-09T07:51:57;97210.56;;;12.59;63.33
56719;BME280;42597;40.636;0.278;2023-01-09T07:54:22;97228.69;;;13.36;69.11
56719;BME280;42597;40.636;0.278;2023-01-09T07:56:48;97231.41;;;13.17;64.68
56719;BME280;42597;40.636;0.278;2023-01-09T07:59:14;97237.56;;;12.36;63.58
56719;BME280;42597;40.636;0.278;2023-01-09T08:01:39;97253.94;;;12.59;63.13
56719;BME280;42597;40.636;0.278;2023-01-09T08:04:05;97260.09;;;12.05;64.45
56719;BME280;42597;40.636;0.278;2023-01-09T08:06:31;97257.50;;;12.63;65.09
56719;BME280;42597;40.636;0.278;2023-01-09T08:08:57;97286.72;;;12.34;64.28
56719;BME280;42597;40.636;0.278;2023-01-09T08:11:23;97248.69;;;11.96;66.07
56719;BME280;42597;40.636;0.278;2023-01-09T08:13:49;97298.72;;;12.53;65.33
56719;BME280;42597;40.636;0.278;2023-01-09T08:16:15;97296.69;;;12.30;64.65
56719;BME280;42597;40.636;0.278;2023-01-09T08:18:41;97299.63;;;11.90;65.06
56719;BME280;42597;40.636;0.278;2023-01-09T08:21:07;97309.13;;;12.00;65.01
56719;BME280;42597;40.636;0.278;2023-01-09T08:23:33;97307.41;;;12.43;63.81
56719;BME280;42597;40.636;0.278;2023-01-09T08:25:59;97323.53;;;12.20;64.35
56719;BME280;42597;40.636;0.278;2023-01-09T08:28:25;97324.94;;;12.84;68.90
56719;BME280;42597;40.636;0.278;2023-01-09T08:30:50;97329.25;;;12.34;63.39
56719;BME280;42597;40.636;0.278;2023-01-09T08:33:16;97347.09;;;12.70;64.31
56719;BME280;42597;40.636;0.278;2023-01-09T08:35:43;97346.94;;;12.12;62.52
56719;BME280;42597;40.636;0.278;2023-01-09T08:38:09;97333.34;;;12.44;64.15
56719;BME280;42597;40.636;0.278;2023-01-09T08:40:35;97384.25;;;13.05;64.13
56719;BME280;42597;40.636;0.278;2023-01-09T08:43:00;97324.25;;;11.57;62.89
56719;BME280;42597;40.636;0.278;2023-01-09T08:45:45;97393.13;;;11.88;61.89
56719;BME280;42597;40.636;0.278;2023-01-09T08:48:30;97364.00;;;11.69;62.66
56719;BME280;42597;40.636;0.278;2023-01-09T08:50:55;97378.47;;;12.20;62.19
56719;BME280;42597;40.636;0.278;2023-01-09T08:53:21;97378.41;;;13.03;67.70
56719;BME280;42597;40.636;0.278;2023-01-09T08:55:47;97369.00;;;11.39;63.23
56719;BME280;42597;40.636;0.278;2023-01-09T08:58:12;97374.81;;;12.28;67.65
56719;BME280;42597;40.636;0.278;2023-01-09T09:00:38;97390.09;;;12.88;64.98
56719;BME280;42597;40.636;0.278;2023-01-09T09:03:04;97390.16;;;11.93;61.79
56719;BME280;42597;40.636;0.278;2023-01-09T09:05:30;97400.81;;;11.85;62.39
56719;BME280;42597;40.636;0.278;2023-01-09T09:07:57;97380.53;;;11.79;62.58
56719;BME280;42597;40.636;0.278;2023-01-09T09:10:26;97377.75;;;12.55;64.23
56719;BME280;42597;40.636;0.278;2023-01-09T09:12:53;97388.53;;;12.20;64.02
56719;BME280;42597;40.636;0.278;2023-01-09T09:15:20;97409.50;;;12.90;65.11
56719;BME280;42597;40.636;0.278;2023-01-09T09:18:07;97409.84;;;11.77;62.88
56719;BME280;42597;40.636;0.278;2023-01-09T09:20:36;97416.84;;;11.78;62.67
56719;BME280;42597;40.636;0.278;2023-01-09T09:23:03;97461.66;;;11.35;63.48
56719;BME280;42597;40.636;0.278;2023-01-09T09:25:30;97417.16;;;11.33;62.96
56719;BME280;42597;40.636;0.278;2023-01-09T09:27:55;97455.53;;;12.70;70.90
56719;BME280;42597;40.636;0.278;2023-01-09T09:30:22;97448.75;;;11.85;61.75
56719;BME280;42597;40.636;0.278;2023-01-09T09:32:48;97455.88;;;11.49;62.52
56719;BME280;42597;40.636;0.278;2023-01-09T09:35:15;97463.13;;;12.17;63.69
56719;BME280;42597;40.636;0.278;2023-01-09T09:37:42;97479.66;;;12.12;62.12
56719;BME280;42597;40.636;0.278;2023-01-09T09:41:07;97467.94;;;12.08;64.32
56719;BME280;42597;40.636;0.278;2023-01-09T09:43:10;97511.13;;;11.89;61.87
56719;BME280;42597;40.636;0.278;2023-01-09T09:48:40;97492.78;;;12.89;68.94
56719;BME280;42597;40.636;0.278;2023-01-09T09:54:26;97527.88;;;12.06;63.70
56719;BME280;42597;40.636;0.278;2023-01-09T09:56:56;97496.94;;;11.79;61.90
56719;BME280;42597;40.636;0.278;2023-01-09T09:59:27;97520.63;;;12.54;63.99
56719;BME280;42597;40.636;0.278;2023-01-09T10:04:30;97512.34;;;12.19;60.32
56719;BME280;42597;40.636;0.278;2023-01-09T10:07:00;97532.84;;;12.64;66.13
56719;BME280;42597;40.636;0.278;2023-01-09T10:09:47;97513.09;;;12.79;65.11
56719;BME280;42597;40.636;0.278;2023-01-09T10:14:53;97575.59;;;12.11;61.49
56719;BME280;42597;40.636;0.278;2023-01-09T10:23:10;97553.13;;;12.70;66.01
56719;BME280;42597;40.636;0.278;2023-01-09T10:25:56;97566.53;;;12.79;60.13
56719;BME280;42597;40.636;0.278;2023-01-09T10:31:45;97559.53;;;12.18;60.40
56719;BME280;42597;40.636;0.278;2023-01-09T10:34:27;97571.06;;;12.15;58.82
56719;BME280;42597;40.636;0.278;2023-01-09T10:42:48;97563.25;;;12.42;58.76
56719;BME280;42597;40.636;0.278;2023-01-09T10:45:39;97552.63;;;12.80;67.61
56719;BME280;42597;40.636;0.278;2023-01-09T10:48:31;97567.09;;;12.41;58.99
56719;BME280;42597;40.636;0.278;2023-01-09T10:50:58;97579.66;;;12.33;59.87
56719;BME280;42597;40.636;0.278;2023-01-09T10:53:34;97583.22;;;12.81;59.09
56719;BME280;42597;40.636;0.278;2023-01-09T10:58:43;97591.22;;;12.46;58.26
56719;BME280;42597;40.636;0.278;2023-01-09T11:01:09;97590.41;;;12.89;58.16
56719;BME280;42597;40.636;0.278;2023-01-09T11:03:35;97592.06;;;12.34;57.93
56719;BME280;42597;40.636;0.278;2023-01-09T11:06:02;97595.97;;;12.49;57.95
56719;BME280;42597;40.636;0.278;2023-01-09T11:08:39;97569.66;;;12.21;57.75
56719;BME280;42597;40.636;0.278;2023-01-09T11:11:07;97573.09;;;12.94;67.05
56719;BME280;42597;40.636;0.278;2023-01-09T11:13:35;97582.53;;;12.68;59.07
56719;BME280;42597;40.636;0.278;2023-01-09T11:16:06;97553.47;;;12.53;58.07
56719;BME280;42597;40.636;0.278;2023-01-09T11:18:36;97583.91;;;12.62;55.80
56719;BME280;42597;40.636;0.278;2023-01-09T11:26:50;97565.38;;;12.64;56.33
56719;BME280;42597;40.636;0.278;2023-01-09T11:29:18;97580.56;;;12.53;56.09
56719;BME280;42597;40.636;0.278;2023-01-09T11:32:19;97584.28;;;12.76;56.00
56719;BME280;42597;40.636;0.278;2023-01-09T11:34:46;97593.50;;;12.44;55.33
56719;BME280;42597;40.636;0.278;2023-01-09T11:37:12;97584.03;;;12.38;54.63
56719;BME280;42597;40.636;0.278;2023-01-09T11:39:44;97571.94;;;12.63;55.27
56719;BME280;42597;40.636;0.278;2023-01-09T11:42:20;97577.28;;;12.75;54.79
56719;BME280;42597;40.636;0.278;2023-01-09T11:45:23;97568.72;;;12.89;55.68
56719;BME280;42597;40.636;0.278;2023-01-09T11:47:51;97564.06;;;13.05;57.27
56719;BME280;42597;40.636;0.278;2023-01-09T11:50:29;97578.78;;;12.89;53.98
56719;BME280;42597;40.636;0.278;2023-01-09T11:53:18;97569.25;;;13.11;54.50
56719;BME280;42597;40.636;0.278;2023-01-09T11:55:45;97558.81;;;13.13;54.18
56719;BME280;42597;40.636;0.278;2023-01-09T11:58:17;97579.19;;;13.22;53.89
56719;BME280;42597;40.636;0.278;2023-01-09T12:09:25;97567.47;;;13.18;55.43
56719;BME280;42597;40.636;0.278;2023-01-09T12:22:48;97606.16;;;13.15;51.99
56719;BME280;42597;40.636;0.278;2023-01-09T12:31:19;97583.94;;;13.25;52.28
56719;BME280;42597;40.636;0.278;2023-01-09T12:33:54;97589.03;;;13.11;51.46
56719;BME280;42597;40.636;0.278;2023-01-09T12:36:31;97568.00;;;13.40;53.47
56719;BME280;42597;40.636;0.278;2023-01-09T12:50:08;97570.69;;;13.55;52.85
56719;BME280;42597;40.636;0.278;2023-01-09T12:55:23;97562.75;;;13.47;50.45
56719;BME280;42597;40.636;0.278;2023-01-09T12:57:52;97571.47;;;13.56;50.57
56719;BME280;42597;40.636;0.278;2023-01-09T13:00:34;97547.78;;;13.92;58.41
56719;BME280;42597;40.636;0.278;2023-01-09T13:05:40;97569.19;;;13.77;48.95
56719;BME280;42597;40.636;0.278;2023-01-09T13:10:47;97564.06;;;13.72;47.69
56719;BME280;42597;40.636;0.278;2023-01-09T13:13:27;97559.75;;;13.52;46.12
56719;BME280;42597;40.636;0.278;2023-01-09T13:16:00;97579.06;;;13.86;48.80
56719;BME280;42597;40.636;0.278;2023-01-09T13:18:41;97554.13;;;13.80;48.24
56719;BME280;42597;40.636;0.278;2023-01-09T13:21:10;97562.19;;;14.35;61.29
56719;BME280;42597;40.636;0.278;2023-01-09T13:26:31;97574.66;;;13.97;49.30
56719;BME280;42597;40.636;0.278;2023-01-09T13:29:07;97570.31;;;14.12;55.67
56719;BME280;42597;40.636;0.278;2023-01-09T13:34:24;97567.19;;;13.74;45.26
56719;BME280;42597;40.636;0.278;2023-01-09T13:36:53;97572.53;;;13.71;45.52
56719;BME280;42597;40.636;0.278;2023-01-09T13:39:26;97567.34;;;13.81;45.32
56719;BME280;42597;40.636;0.278;2023-01-09T13:41:57;97570.78;;;13.98;46.31
56719;BME280;42597;40.636;0.278;2023-01-09T13:44:43;97584.81;;;14.19;52.04
56719;BME280;42597;40.636;0.278;2023-01-09T13:47:24;97564.50;;;13.94;46.44
56719;BME280;42597;40.636;0.278;2023-01-09T13:49:59;97562.22;;;13.96;47.60
56719;BME280;42597;40.636;0.278;2023-01-09T13:55:00;97560.69;;;14.37;57.87
56719;BME280;42597;40.636;0.278;2023-01-09T13:57:29;97558.34;;;14.16;51.04
56719;BME280;42597;40.636;0.278;2023-01-09T14:10:38;97565.41;;;14.40;50.08
56719;BME280;42597;40.636;0.278;2023-01-09T14:13:25;97563.94;;;14.04;49.74
56719;BME280;42597;40.636;0.278;2023-01-09T14:16:02;97561.50;;;13.99;50.54
56719;BME280;42597;40.636;0.278;2023-01-09T14:18:32;97567.66;;;13.96;50.62
56719;BME280;42597;40.636;0.278;2023-01-09T14:21:02;97588.09;;;14.28;53.16
56719;BME280;42597;40.636;0.278;2023-01-09T14:23:33;97583.34;;;14.45;59.00
56719;BME280;42597;40.636;0.278;2023-01-09T14:26:01;97585.44;;;13.93;50.23
56719;BME280;42597;40.636;0.278;2023-01-09T14:28:28;97559.28;;;14.04;49.82
56719;BME280;42597;40.636;0.278;2023-01-09T14:33:26;97576.53;;;14.12;49.65
56719;BME280;42597;40.636;0.278;2023-01-09T14:38:51;97569.78;;;13.67;49.03
56719;BME280;42597;40.636;0.278;2023-01-09T14:42:04;97580.25;;;14.04;50.85
56719;BME280;42597;40.636;0.278;2023-01-09T14:44:44;97589.66;;;13.91;49.15
56719;BME280;42597;40.636;0.278;2023-01-09T14:52:30;97590.81;;;13.90;48.41
56719;BME280;42597;40.636;0.278;2023-01-09T14:54:59;97590.38;;;13.88;48.17
56719;BME280;42597;40.636;0.278;2023-01-09T14:57:31;97606.97;;;14.02;48.15
56719;BME280;42597;40.636;0.278;2023-01-09T15:00:05;97612.13;;;14.07;47.73
56719;BME280;42597;40.636;0.278;2023-01-09T15:02:40;97607.59;;;14.15;47.65
56719;BME280;42597;40.636;0.278;2023-01-09T15:05:13;97601.38;;;14.14;48.24
56719;BME280;42597;40.636;0.278;2023-01-09T15:07:53;97613.41;;;14.13;48.79
56719;BME280;42597;40.636;0.278;2023-01-09T15:10:27;97632.94;;;13.99;48.26
56719;BME280;42597;40.636;0.278;2023-01-09T15:12:55;97634.44;;;14.16;48.58
56719;BME280;42597;40.636;0.278;2023-01-09T15:15:22;97645.22;;;13.93;46.39
56719;BME280;42597;40.636;0.278;2023-01-09T15:17:54;97656.06;;;13.93;45.12
56719;BME280;42597;40.636;0.278;2023-01-09T15:20:31;97634.00;;;14.14;47.37
56719;BME280;42597;40.636;0.278;2023-01-09T15:22:58;97666.19;;;14.12;45.44
56719;BME280;42597;40.636;0.278;2023-01-09T15:25:31;97647.56;;;13.95;44.08
56719;BME280;42597;40.636;0.278;2023-01-09T15:27:59;97664.66;;;13.95;44.79
56719;BME280;42597;40.636;0.278;2023-01-09T15:30:31;97651.03;;;14.11;44.90
56719;BME280;42597;40.636;0.278;2023-01-09T15:33:14;97650.31;;;14.14;50.12
56719;BME280;42597;40.636;0.278;2023-01-09T15:35:44;97679.50;;;14.17;44.75
56719;BME280;42597;40.636;0.278;2023-01-09T15:38:13;97687.63;;;13.82;44.68
56719;BME280;42597;40.636;0.278;2023-01-09T15:40:40;97650.72;;;13.97;46.50
56719;BME280;42597;40.636;0.278;2023-01-09T15:43:06;97681.25;;;13.74;44.73
56719;BME280;42597;40.636;0.278;2023-01-09T15:45:39;97702.63;;;13.92;44.77
56719;BME280;42597;40.636;0.278;2023-01-09T15:48:32;97696.94;;;13.81;44.08